Grafton, Virginia
Current Conditions -  °F | °C
As of 1:54 PM on Thursday 23 Oct 2014 (Local Time) from KPHF Reporting Station
Broken Clouds Broken Clouds  
Wind Chill: 19°   Ceiling: 4100
Heat Index: 19°   Visibility: 10mi
Dew Point:   Wind: 13mph
Humidity: 50%   Direction: 300°WNW
Pressure: 29.86"   Gusts: NA
Location:  37.1781°N, 76.4669°W
Report Text: KPHF 231754Z 30011KT 10SM BKN041 19/08 A2986 RMK AO2 SLP109 T01890083 10200 20128 58013
Loading
Personal Weather Stations






























Interactive Weather Map
Tropical Storm Tracking
New forecast layout! Learn more

10-Day Weather Forecast

Advertisements
Track Severe Weather on mobile